カンゲルルススアーク の空港の天気 - METARとTAF

カンゲルルススアーク空港 ( BGSF / SFJ ) - グリーンランド カンゲルルススアーク
飛行場実況気象(Metar)
観測時間04/25 11:50 WGST (04/25 13:50 UTC)
風向・風速西南西 2m/s
視程-
天気現象
全天の8割程度の雲 雲底高度 2290m
気温0℃
湿度37%
気圧1009hPa
METARBGSF 251350Z AUTO 25003KT 9999NDV BKN075/// 00/M13 Q1009
過去の天気等 Google飛行場航空写真 Wunderground天気予報

過去48時間のMETAR

飛行場予報(TAF)
発表時間: 4/25 09:00 WGST (4/25 11:00 UTC)
予報対象時間: 25日10時 WGST ~ 25日23時 WGST
風向・風速東 4m/s
視程10km以上
少しの雲 雲底高度 1,520m
全天の4割程度の雲 雲底高度 2,290m
25日10時 WGST ~ 25日18時 WGST に一時的に
全天の8割程度の雲 雲底高度 1,520m
25日18時 WGST ~ 25日23時 WGST に一時的に
全天の8割程度の雲 雲底高度 910m
TAF BGSF 251100Z 2512/2601 08008KT 9999 FEW050 SCT075
TEMPO 2512/2520 BKN050
TEMPO 2520/2601 BKN030